Belleville, Arkansas
Current Conditions -  °F | °C
As of 3:53 AM on Monday 26 Jan 2015 (Local Time) from KRUE Reporting Station
Broken Clouds Broken Clouds  
Wind Chill: 37°   Ceiling: 3200
Heat Index: 40°   Visibility: 10mi
Dew Point: 30°   Wind: 5mph
Humidity: 68%   Direction: 290°WNW
Pressure: 30.09"   Gusts: NA
Location:  35.09°N, 93.45°W
Report Text: KRUE 260953Z AUTO 29004KT 10SM BKN032 04/M01 A3009 RMK AO2 SLP188 T00441011
Loading
Personal Weather Stations






























Interactive Weather Map New forecast layout! Learn more

10-Day Weather Forecast

Advertisements
Track Severe Weather on mobile